Time;durP1;ratioP1;P1;durP2;ratioP2;P2;SDS_P1;SDS_P2;PMS_P1;PMS_P2;Temp;Humidity;BMP_temperature;BMP_pressure;BME280_temperature;BME280_humidity;BME280_pressure;Samples;Min_cycle;Max_cycle;Signal;HPM_P1;HPM_P2
2022/07/04 00:02:15;;;;;;;4.78;1.50;;;18.10;98.70;;;;;;5023837;28;20227;-80
2022/07/04 00:04:43;;;;;;;2.58;1.67;;;18.10;98.90;;;;;;5037080;28;20218;-80
2022/07/04 00:07:10;;;;;;;2.58;1.40;;;18.10;98.40;;;;;;5017609;28;20211;-80
2022/07/04 00:09:38;;;;;;;1.45;1.10;;;18.10;99.30;;;;;;5037710;28;20207;-80
2022/07/04 00:12:06;;;;;;;1.55;1.08;;;18.00;99.50;;;;;;5024956;28;20196;-80
2022/07/04 00:14:36;;;;;;;1.65;1.23;;;18.00;99.40;;;;;;5024745;28;20195;-80
2022/07/04 00:17:05;;;;;;;2.10;1.23;;;18.10;99.00;;;;;;5023426;28;20200;-80
2022/07/04 00:19:33;;;;;;;2.53;1.25;;;18.10;98.40;;;;;;5020433;28;20543;-80
2022/07/04 00:22:01;;;;;;;3.67;1.40;;;18.10;98.30;;;;;;5021957;28;20211;-80
2022/07/04 00:24:29;;;;;;;3.83;1.33;;;18.00;99.10;;;;;;5020483;28;20205;-80
2022/07/04 00:26:56;;;;;;;1.33;1.02;;;17.90;99.90;;;;;;5030030;28;20195;-80
2022/07/04 00:29:24;;;;;;;2.85;1.10;;;17.80;99.90;;;;;;5014485;28;20221;-80
2022/07/04 00:31:52;;;;;;;1.85;1.05;;;17.50;99.90;;;;;;5021497;28;20207;-80
2022/07/04 00:34:21;;;;;;;2.42;1.33;;;17.40;99.90;;;;;;5017085;28;20206;-80
2022/07/04 00:36:48;;;;;;;1.15;1.05;;;17.40;99.90;;;;;;5022558;28;20190;-80
2022/07/04 00:39:16;;;;;;;1.10;1.00;;;17.40;99.90;;;;;;5038666;28;20238;-80
2022/07/04 00:41:44;;;;;;;3.28;1.30;;;17.50;99.90;;;;;;5017850;28;20218;-80
2022/07/04 00:44:15;;;;;;;3.70;1.20;;;17.60;99.90;;;;;;5015971;28;20195;-80
2022/07/04 00:46:44;;;;;;;3.45;1.30;;;17.70;99.90;;;;;;5020385;28;20203;-80
2022/07/04 00:49:12;;;;;;;1.67;1.23;;;17.20;99.90;;;;;;5022865;28;20222;-80
2022/07/04 00:51:43;;;;;;;3.17;1.30;;;17.30;99.90;;;;;;5024532;28;20195;-80
2022/07/04 00:54:13;;;;;;;2.03;1.60;;;17.30;99.90;;;;;;5035479;28;20206;-80
2022/07/04 00:56:43;;;;;;;2.33;1.20;;;17.50;99.90;;;;;;5017023;28;20203;-79
2022/07/04 00:59:12;;;;;;;1.58;1.13;;;17.40;99.90;;;;;;5019173;28;20226;-80
2022/07/04 01:01:40;;;;;;;3.15;1.50;;;17.50;99.90;;;;;;5018532;28;20227;-80
2022/07/04 01:04:08;;;;;;;1.88;1.30;;;17.50;99.90;;;;;;5013876;28;20544;-80
2022/07/04 01:06:35;;;;;;;1.45;1.20;;;17.30;99.90;;;;;;5015890;28;20187;-80
2022/07/04 01:09:06;;;;;;;2.13;1.35;;;17.30;99.90;;;;;;5024121;28;20215;-80
2022/07/04 01:11:33;;;;;;;2.38;1.48;;;17.30;99.90;;;;;;5022574;28;20210;-80
2022/07/04 01:14:02;;;;;;;3.15;1.48;;;17.50;99.90;;;;;;5028249;28;20206;-80
2022/07/04 01:16:30;;;;;;;2.42;1.48;;;17.60;99.90;;;;;;5028541;28;20215;-80
2022/07/04 01:18:57;;;;;;;2.78;1.52;;;17.60;99.90;;;;;;5026670;28;20215;-79
2022/07/04 01:21:27;;;;;;;2.85;1.52;;;17.50;99.90;;;;;;5024680;28;20203;-80
2022/07/04 01:23:54;;;;;;;2.40;1.52;;;17.20;99.90;;;;;;5039583;28;20273;-79
2022/07/04 01:26:22;;;;;;;1.60;1.50;;;17.30;99.90;;;;;;5022515;28;20206;-80
2022/07/04 01:28:50;;;;;;;2.78;1.50;;;17.40;99.90;;;;;;5015208;28;20226;-80
2022/07/04 01:31:17;;;;;;;1.75;1.50;;;17.40;99.90;;;;;;5027654;28;20198;-80
2022/07/04 01:33:45;;;;;;;2.17;1.50;;;17.40;99.90;;;;;;5024359;28;20202;-80
2022/07/04 01:36:13;;;;;;;3.58;1.50;;;17.50;99.90;;;;;;5022609;28;20199;-80
2022/07/04 01:38:42;;;;;;;1.52;1.30;;;17.30;99.90;;;;;;5027248;28;20215;-80
2022/07/04 01:41:09;;;;;;;3.33;1.38;;;17.10;99.90;;;;;;5019063;28;20215;-80
2022/07/04 01:43:37;;;;;;;1.50;1.17;;;17.00;99.90;;;;;;5022651;28;20227;-80
2022/07/04 01:46:04;;;;;;;1.70;1.40;;;17.10;99.90;;;;;;5025543;28;20206;-80
2022/07/04 01:48:32;;;;;;;2.55;1.80;;;17.10;99.90;;;;;;5025062;28;20238;-80
2022/07/04 01:50:59;;;;;;;3.42;1.40;;;17.20;99.90;;;;;;5020000;28;20202;-80
2022/07/04 01:53:27;;;;;;;1.83;1.30;;;17.20;99.90;;;;;;5024167;28;20200;-80
2022/07/04 01:55:56;;;;;;;3.33;1.38;;;17.10;99.90;;;;;;5019737;28;20669;-80
2022/07/04 01:58:24;;;;;;;1.85;1.40;;;17.20;99.90;;;;;;5021778;28;20227;-80
2022/07/04 02:23:41;;;;;;;3.15;2.20;;;16.80;99.90;;;;;;5028399;28;20206;-79
2022/07/04 02:26:09;;;;;;;4.32;1.80;;;17.00;99.90;;;;;;5021313;28;20200;-79
2022/07/04 02:28:36;;;;;;;2.83;2.00;;;17.00;99.90;;;;;;5019392;28;20573;-79
2022/07/04 02:31:41;;;;;;;2.97;1.90;;;17.10;99.90;;;;;;5021200;28;20547;-79
2022/07/04 02:34:09;;;;;;;3.50;2.30;;;17.10;99.90;;;;;;5027835;28;20203;-79
2022/07/04 02:36:38;;;;;;;3.28;2.20;;;17.30;99.90;;;;;;5018240;28;20191;-79
2022/07/04 02:39:07;;;;;;;3.17;1.92;;;17.40;99.90;;;;;;5016605;28;20211;-79
2022/07/04 02:41:35;;;;;;;4.43;2.22;;;17.40;99.90;;;;;;5023507;28;20191;-79
2022/07/04 02:44:03;;;;;;;3.13;2.10;;;17.40;99.90;;;;;;5026666;28;20214;-79
2022/07/04 02:46:32;;;;;;;4.40;2.75;;;17.30;99.90;;;;;;5032122;28;20203;-79
2022/07/04 02:49:00;;;;;;;2.42;1.90;;;17.30;99.90;;;;;;5030316;28;20583;-79
2022/07/04 02:54:54;;;;;;;3.08;2.10;;;17.20;99.90;;;;;;5018544;28;20172;-79
2022/07/04 02:57:22;;;;;;;2.97;2.40;;;17.10;99.90;;;;;;5022112;28;20226;-79
2022/07/04 02:59:49;;;;;;;2.67;2.00;;;16.80;99.90;;;;;;5025051;28;20204;-79
2022/07/04 03:02:17;;;;;;;2.47;2.17;;;16.70;99.90;;;;;;5022080;28;20231;-79
2022/07/04 03:04:45;;;;;;;3.05;2.15;;;16.80;99.90;;;;;;5025887;28;20218;-79
2022/07/04 03:07:13;;;;;;;4.00;2.13;;;16.70;99.90;;;;;;5019179;28;20199;-78
2022/07/04 03:09:41;;;;;;;2.60;2.33;;;16.70;99.90;;;;;;5017007;28;20195;-78
2022/07/04 03:12:10;;;;;;;3.58;2.70;;;16.60;99.90;;;;;;5029083;28;20203;-78
2022/07/04 03:14:38;;;;;;;2.45;2.05;;;16.50;99.90;;;;;;5029868;28;20199;-79
2022/07/04 03:17:05;;;;;;;5.63;2.90;;;16.60;99.90;;;;;;5028907;28;20195;-78
2022/07/04 03:19:33;;;;;;;4.00;2.50;;;16.30;99.90;;;;;;5025070;28;20188;-79
2022/07/04 03:22:00;;;;;;;3.40;2.70;;;16.30;99.90;;;;;;5019174;28;20206;-78
2022/07/04 03:24:28;;;;;;;3.42;2.47;;;16.30;99.90;;;;;;5025655;28;20661;-78
2022/07/04 03:26:55;;;;;;;3.45;2.58;;;16.20;99.90;;;;;;5024530;28;20531;-78
2022/07/04 03:29:34;;;;;;;3.40;2.63;;;16.20;99.90;;;;;;5019912;28;20200;-79
2022/07/04 03:32:01;;;;;;;3.35;2.45;;;16.20;99.90;;;;;;5020186;28;20199;-81
2022/07/04 03:34:29;;;;;;;4.88;2.67;;;16.20;99.90;;;;;;5024742;28;20681;-80
2022/07/04 03:36:56;;;;;;;2.92;2.47;;;16.20;99.90;;;;;;5023480;28;20196;-80
2022/07/04 03:39:25;;;;;;;3.72;2.75;;;16.30;99.90;;;;;;5025112;28;20195;-80
2022/07/04 03:41:52;;;;;;;3.63;2.60;;;16.30;99.90;;;;;;5029378;28;20208;-81
2022/07/04 03:44:20;;;;;;;6.30;3.00;;;16.40;99.90;;;;;;5032657;28;20219;-80
2022/07/04 03:46:48;;;;;;;4.07;2.47;;;16.50;99.90;;;;;;5025146;28;20206;-80
2022/07/04 03:49:16;;;;;;;5.28;3.08;;;16.50;99.90;;;;;;5021847;28;20219;-81
2022/07/04 03:51:44;;;;;;;3.97;2.85;;;16.50;99.90;;;;;;5026767;28;20203;-81
2022/07/04 03:54:11;;;;;;;5.55;3.00;;;16.50;99.90;;;;;;5024171;28;20211;-80
2022/07/04 03:56:39;;;;;;;5.28;2.88;;;16.50;99.90;;;;;;5032056;28;20206;-80
2022/07/04 03:59:06;;;;;;;6.18;3.13;;;16.60;99.90;;;;;;5031972;28;20590;-80
2022/07/04 04:01:37;;;;;;;4.15;2.85;;;16.60;99.90;;;;;;5029530;28;20200;-79
2022/07/04 04:06:59;;;;;;;5.40;2.88;;;16.60;99.90;;;;;;5030919;28;20199;-81
2022/07/04 04:09:26;;;;;;;6.28;3.20;;;16.80;99.90;;;;;;5031987;28;20201;-81
2022/07/04 04:11:54;;;;;;;5.05;3.15;;;16.90;99.90;;;;;;5044654;28;20208;-80
2022/07/04 04:14:24;;;;;;;4.88;3.20;;;16.90;99.90;;;;;;5025217;28;20206;-81
2022/07/04 04:16:51;;;;;;;3.45;2.78;;;16.90;99.90;;;;;;5028570;28;20195;-81
2022/07/04 04:19:20;;;;;;;4.13;3.05;;;16.80;99.90;;;;;;5026583;28;20223;-81
2022/07/04 04:21:48;;;;;;;5.03;3.28;;;16.90;99.90;;;;;;5034433;28;20584;-80
2022/07/04 04:24:15;;;;;;;3.28;2.90;;;17.00;99.90;;;;;;5024579;28;20220;-81
2022/07/04 04:26:43;;;;;;;4.50;3.03;;;17.10;99.90;;;;;;5030287;28;20214;-81
2022/07/04 04:29:13;;;;;;;5.95;3.58;;;17.10;99.90;;;;;;5027853;28;20218;-81
2022/07/04 04:31:41;;;;;;;5.57;3.25;;;17.10;99.90;;;;;;5026957;28;20863;-80
2022/07/04 04:34:08;;;;;;;3.85;3.22;;;17.00;99.90;;;;;;5020066;28;20195;-80
2022/07/04 04:36:37;;;;;;;4.65;3.10;;;17.00;99.90;;;;;;5024570;28;20203;-80
2022/07/04 04:39:05;;;;;;;5.05;3.63;;;17.10;99.90;;;;;;5026120;28;20215;-80
2022/07/04 04:41:32;;;;;;;5.65;3.42;;;17.10;99.90;;;;;;5026821;28;20207;-81
2022/07/04 04:44:00;;;;;;;5.63;3.28;;;17.20;99.90;;;;;;5022256;28;20227;-80
2022/07/04 04:46:27;;;;;;;8.50;4.22;;;17.30;99.90;;;;;;5020830;28;20193;-80
2022/07/04 04:48:55;;;;;;;4.57;3.50;;;17.30;99.90;;;;;;5038925;28;20990;-80
2022/07/04 04:51:22;;;;;;;6.40;3.72;;;17.30;99.90;;;;;;5027482;28;20195;-83
2022/07/04 04:53:52;;;;;;;5.97;4.18;;;17.30;99.90;;;;;;5031357;28;20195;-83
2022/07/04 04:56:19;;;;;;;7.25;4.32;;;17.00;99.90;;;;;;5025532;28;20573;-83
2022/07/04 04:58:47;;;;;;;10.95;4.65;;;16.90;99.90;;;;;;5020051;28;20584;-82
2022/07/04 05:01:14;;;;;;;5.47;4.10;;;17.00;99.90;;;;;;5014761;28;20196;-83
2022/07/04 05:03:42;;;;;;;5.70;3.92;;;16.80;99.90;;;;;;5039381;28;20215;-83
2022/07/04 05:06:10;;;;;;;5.85;4.40;;;17.20;99.90;;;;;;5029151;28;20681;-83
2022/07/04 05:08:37;;;;;;;7.25;4.20;;;17.30;99.90;;;;;;5025011;28;20215;-82
2022/07/04 05:11:08;;;;;;;4.80;4.00;;;17.40;99.90;;;;;;5029904;28;20195;-83
2022/07/04 05:13:38;;;;;;;6.85;4.97;;;17.50;99.90;;;;;;5022671;28;20196;-83
2022/07/04 05:16:06;;;;;;;6.00;5.15;;;17.30;99.90;;;;;;5021514;28;20204;-83
2022/07/04 05:18:33;;;;;;;6.13;4.70;;;17.20;99.90;;;;;;5021229;28;20214;-83
2022/07/04 05:21:01;;;;;;;7.28;5.75;;;17.20;99.90;;;;;;5028052;28;20225;-81
2022/07/04 05:23:29;;;;;;;9.48;6.60;;;17.20;99.90;;;;;;5021283;28;20216;-80
2022/07/04 05:25:56;;;;;;;10.40;7.45;;;17.30;99.90;;;;;;5023784;28;20188;-80
2022/07/04 05:28:25;;;;;;;9.63;7.40;;;17.20;99.90;;;;;;5021879;28;20211;-80
2022/07/04 05:30:53;;;;;;;9.77;6.95;;;17.20;99.90;;;;;;5023830;28;20206;-80
2022/07/04 05:33:20;;;;;;;11.95;7.75;;;17.20;99.90;;;;;;5020220;28;20211;-80
2022/07/04 05:35:48;;;;;;;11.85;7.72;;;17.00;99.90;;;;;;5029798;28;20650;-80
2022/07/04 05:38:15;;;;;;;8.55;6.85;;;17.20;99.90;;;;;;5023942;28;20220;-80
2022/07/04 05:40:43;;;;;;;9.25;5.80;;;17.20;99.90;;;;;;5025002;28;20203;-80
2022/07/04 05:43:16;;;;;;;8.80;6.00;;;17.10;99.90;;;;;;5021211;28;20206;-80
2022/07/04 05:48:47;;;;;;;8.50;6.35;;;17.10;99.90;;;;;;5023629;28;20231;-79
2022/07/04 05:51:14;;;;;;;11.07;5.60;;;17.10;99.90;;;;;;5022977;28;20203;-80
2022/07/04 05:53:42;;;;;;;9.25;5.90;;;17.20;99.90;;;;;;5016051;28;20212;-80
2022/07/04 05:56:09;;;;;;;9.30;5.40;;;17.20;99.90;;;;;;5024198;28;20200;-80
2022/07/04 05:58:37;;;;;;;7.60;4.60;;;17.30;99.90;;;;;;5024860;28;20236;-80
2022/07/04 06:01:06;;;;;;;6.57;5.00;;;17.20;99.90;;;;;;5021258;28;20202;-80
2022/07/04 06:03:37;;;;;;;8.57;5.47;;;17.20;99.90;;;;;;5024249;28;20615;-81
2022/07/04 06:06:08;;;;;;;10.30;5.78;;;17.30;99.90;;;;;;5041581;28;20206;-82
2022/07/04 06:08:36;;;;;;;9.90;4.93;;;17.80;99.90;;;;;;5028002;28;20310;-82
2022/07/04 06:11:04;;;;;;;7.50;5.03;;;17.80;99.90;;;;;;5027211;28;20209;-80
2022/07/04 06:13:31;;;;;;;9.68;5.88;;;17.80;99.90;;;;;;5044934;28;20203;-81
2022/07/04 06:15:59;;;;;;;10.73;6.32;;;17.60;99.90;;;;;;5045005;28;20289;-77
2022/07/04 06:18:29;;;;;;;11.05;5.53;;;17.60;99.90;;;;;;5037700;28;20219;-77
2022/07/04 06:20:57;;;;;;;11.18;7.10;;;18.00;99.90;;;;;;5039405;28;20210;-79
2022/07/04 06:23:24;;;;;;;11.63;7.97;;;18.00;99.90;;;;;;5025276;28;20210;-83
2022/07/04 06:25:53;;;;;;;12.60;7.65;;;17.50;99.90;;;;;;5028220;28;20223;-81
2022/07/04 06:28:20;;;;;;;12.23;6.97;;;17.80;99.90;;;;;;5021125;28;20222;-83
2022/07/04 06:30:48;;;;;;;9.80;6.07;;;18.00;99.90;;;;;;5024439;28;20206;-83
2022/07/04 06:33:15;;;;;;;11.80;5.45;;;17.80;99.90;;;;;;5035758;28;20215;-81
2022/07/04 06:35:51;;;;;;;11.25;5.50;;;18.00;99.90;;;;;;5019454;28;20206;-81
2022/07/04 06:38:20;;;;;;;8.25;5.03;;;18.10;99.90;;;;;;5017516;28;20215;-79
2022/07/04 06:40:51;;;;;;;7.20;4.45;;;17.80;99.90;;;;;;5015124;28;20195;-81
2022/07/04 06:43:19;;;;;;;5.90;4.28;;;18.30;99.90;;;;;;5018045;28;20673;-80
2022/07/04 06:45:46;;;;;;;9.90;4.28;;;18.30;99.90;;;;;;5029509;28;20509;-82
2022/07/04 06:48:14;;;;;;;5.75;3.08;;;18.30;99.90;;;;;;5017615;28;20223;-82
2022/07/04 06:50:41;;;;;;;5.63;2.75;;;19.10;99.90;;;;;;5019584;28;20203;-81
2022/07/04 06:53:11;;;;;;;5.65;2.70;;;18.60;99.90;;;;;;5026627;28;20203;-82
2022/07/04 06:55:39;;;;;;;8.32;3.00;;;18.60;99.90;;;;;;5020856;28;20184;-82
2022/07/04 06:58:08;;;;;;;4.70;2.85;;;18.80;99.90;;;;;;5017258;28;20242;-81
2022/07/04 07:00:36;;;;;;;5.80;2.70;;;19.10;99.90;;;;;;5013644;28;20199;-82
2022/07/04 07:03:05;;;;;;;5.15;2.65;;;19.30;99.90;;;;;;5018943;28;20206;-80
2022/07/04 07:05:34;;;;;;;5.22;2.70;;;18.70;99.90;;;;;;5019076;28;20214;-81
2022/07/04 07:08:26;;;;;;;;;;;;;;;;;;;;;
2022/07/04 07:10:55;;;;;;;4.57;2.53;;;19.40;99.90;;;;;;5016957;28;20199;-81
2022/07/04 07:13:23;;;;;;;5.32;1.83;;;19.20;99.90;;;;;;5016813;28;20210;-81
2022/07/04 07:15:53;;;;;;;2.35;1.55;;;19.60;99.70;;;;;;5033871;28;20219;-81
2022/07/04 07:18:21;;;;;;;4.32;1.85;;;19.10;98.70;;;;;;5014310;28;20223;-81
2022/07/04 07:21:01;;;;;;;4.03;2.10;;;19.40;97.60;;;;;;5018287;28;20208;-81
2022/07/04 07:23:29;;;;;;;5.18;2.63;;;19.00;98.60;;;;;;5012927;28;20199;-81
2022/07/04 07:26:00;;;;;;;4.95;2.58;;;18.90;98.90;;;;;;5016223;28;20690;-79
2022/07/04 07:28:37;;;;;;;5.65;2.85;;;19.00;98.40;;;;;;5027663;28;20220;-79
2022/07/04 07:31:11;;;;;;;5.57;2.85;;;19.10;98.60;;;;;;5021675;28;20199;-81
2022/07/04 07:33:41;;;;;;;6.45;3.05;;;19.40;97.00;;;;;;5033966;28;20195;-86
2022/07/04 07:40:03;;;;;;;4.55;2.63;;;19.60;94.80;;;;;;5025571;28;20203;-81
2022/07/04 07:42:34;;;;;;;4.90;2.70;;;19.70;95.40;;;;;;5031136;28;20204;-82
2022/07/04 07:45:10;;;;;;;4.72;2.40;;;19.90;95.60;;;;;;5021622;28;20215;-80
2022/07/04 07:47:38;;;;;;;4.15;2.25;;;19.70;94.90;;;;;;5037216;28;20222;-83
2022/07/04 07:50:07;;;;;;;3.53;2.03;;;20.00;95.00;;;;;;5021737;28;20196;-81
2022/07/04 07:52:35;;;;;;;4.22;2.20;;;19.50;95.40;;;;;;5019068;28;20548;-82
2022/07/04 07:55:06;;;;;;;2.92;2.00;;;19.60;95.20;;;;;;5025118;28;20214;-82
2022/07/04 07:57:35;;;;;;;3.72;2.10;;;19.70;94.40;;;;;;5027099;28;20235;-88
2022/07/04 08:00:09;;;;;;;5.88;2.40;;;19.90;94.60;;;;;;5026996;28;20210;-84
2022/07/04 08:05:33;;;;;;;4.80;2.13;;;19.90;94.90;;;;;;4960085;28;20229;-83
2022/07/04 08:08:01;;;;;;;2.50;1.75;;;20.10;94.30;;;;;;5014029;28;20226;-81
2022/07/04 08:10:29;;;;;;;5.75;1.92;;;19.80;92.30;;;;;;5015730;28;20191;-81
2022/07/04 08:12:58;;;;;;;3.17;1.65;;;20.30;93.80;;;;;;5014191;28;20207;-81
2022/07/04 08:15:26;;;;;;;3.75;1.83;;;20.50;92.70;;;;;;5024807;28;20191;-80
2022/07/04 08:17:54;;;;;;;7.22;1.80;;;20.40;91.70;;;;;;5022948;28;20231;-81
2022/07/04 08:20:21;;;;;;;2.45;1.38;;;20.40;92.60;;;;;;5023594;28;20207;-81
2022/07/04 08:22:49;;;;;;;4.28;1.63;;;20.40;93.00;;;;;;5016768;28;20195;-82
2022/07/04 08:25:16;;;;;;;3.13;1.73;;;20.20;91.80;;;;;;5020947;28;20230;-82
2022/07/04 08:27:46;;;;;;;2.83;1.88;;;20.30;91.80;;;;;;5019942;28;20212;-85
2022/07/04 08:30:15;;;;;;;3.78;1.63;;;20.40;92.00;;;;;;5016812;28;20219;-84
2022/07/04 08:32:46;;;;;;;2.95;1.98;;;20.30;92.70;;;;;;5018790;28;20211;-82
2022/07/04 08:35:17;;;;;;;4.03;1.85;;;20.30;91.90;;;;;;5018348;28;20200;-83
2022/07/04 08:37:45;;;;;;;4.55;2.03;;;20.30;92.30;;;;;;5019227;28;20241;-83
2022/07/04 08:40:13;;;;;;;3.45;1.70;;;20.60;92.40;;;;;;5015761;28;20191;-84
2022/07/04 08:42:42;;;;;;;3.78;1.67;;;20.60;91.40;;;;;;5031038;28;20195;-87
2022/07/04 08:45:32;;;;;;;2.75;1.55;;;20.60;91.00;;;;;;5020537;28;20208;-81
2022/07/04 08:48:02;;;;;;;5.70;2.10;;;20.70;91.60;;;;;;5016571;28;20258;-79
2022/07/04 08:50:33;;;;;;;2.05;1.33;;;20.70;91.90;;;;;;5027055;28;20207;-83
2022/07/04 08:59:50;;;;;;;3.88;1.33;;;20.80;91.30;;;;;;5021086;28;20222;-84
2022/07/04 09:06:15;;;;;;;4.43;1.67;;;20.80;91.40;;;;;;4963178;28;20255;-86
2022/07/04 09:08:43;;;;;;;1.52;1.40;;;21.00;91.30;;;;;;5025884;28;20719;-85
2022/07/04 09:11:14;;;;;;;4.75;1.85;;;20.70;91.50;;;;;;5025693;28;20194;-85
2022/07/04 09:13:44;;;;;;;3.50;2.00;;;20.70;92.00;;;;;;5023170;28;20204;-85
2022/07/04 09:16:14;;;;;;;1.95;1.40;;;20.80;91.10;;;;;;5028139;28;20564;-85
2022/07/04 09:18:44;;;;;;;4.18;1.58;;;21.00;91.10;;;;;;5016993;28;20230;-84
2022/07/04 09:21:15;;;;;;;5.45;1.20;;;21.10;90.40;;;;;;5027197;28;20194;-85
2022/07/04 09:23:45;;;;;;;2.85;1.50;;;21.30;90.70;;;;;;5029159;28;20206;-88
2022/07/04 09:26:16;;;;;;;2.88;1.83;;;21.40;90.10;;;;;;5024709;28;20212;-85
2022/07/04 09:28:48;;;;;;;2.95;1.40;;;21.30;90.20;;;;;;5026176;28;20220;-90
2022/07/04 09:31:21;;;;;;;5.22;1.90;;;21.40;90.40;;;;;;5027374;28;20203;-84
2022/07/04 09:33:52;;;;;;;1.90;1.48;;;21.40;89.90;;;;;;5024700;28;20211;-85
2022/07/04 09:36:24;;;;;;;4.68;1.80;;;21.30;90.40;;;;;;5025008;28;20204;-85
2022/07/04 09:39:15;;;;;;;2.42;1.30;;;21.30;88.20;;;;;;5032508;28;20211;-85
2022/07/04 09:41:55;;;;;;;2.58;1.33;;;21.30;87.40;;;;;;5032162;28;20215;-85
2022/07/04 09:44:24;;;;;;;1.50;1.10;;;21.20;86.70;;;;;;5029962;28;20199;-86
2022/07/04 09:46:52;;;;;;;2.60;1.00;;;21.30;87.10;;;;;;5028900;28;20570;-86
2022/07/04 09:49:20;;;;;;;4.10;1.40;;;21.20;86.80;;;;;;5021202;28;20227;-85
2022/07/04 09:51:51;;;;;;;2.67;1.45;;;21.50;87.10;;;;;;5030489;28;20206;-85
2022/07/04 09:54:22;;;;;;;1.85;1.20;;;21.60;86.30;;;;;;5028440;28;20203;-86
2022/07/04 09:56:54;;;;;;;3.05;1.38;;;21.70;87.00;;;;;;5042997;28;20687;-86
2022/07/04 09:59:22;;;;;;;3.13;1.50;;;21.70;85.60;;;;;;5030084;28;20222;-86
2022/07/04 10:01:51;;;;;;;2.38;1.10;;;21.50;84.80;;;;;;5029493;28;20197;-86
2022/07/04 10:04:24;;;;;;;4.13;1.42;;;21.80;84.20;;;;;;5027006;28;20199;-86
2022/07/04 10:06:53;;;;;;;1.88;1.00;;;21.90;83.10;;;;;;5029029;28;20219;-85
2022/07/04 10:09:20;;;;;;;4.90;1.10;;;21.70;80.40;;;;;;5025100;28;20565;-85
2022/07/04 10:11:48;;;;;;;2.80;1.33;;;21.80;80.50;;;;;;5032293;28;20214;-85
2022/07/04 10:14:34;;;;;;;5.00;1.48;;;21.90;80.70;;;;;;5027485;28;20207;-86
2022/07/04 10:17:02;;;;;;;3.08;1.17;;;21.80;81.90;;;;;;5020656;28;20207;-86
2022/07/04 10:19:29;;;;;;;3.28;1.00;;;21.80;83.20;;;;;;5025743;28;20200;-86
2022/07/04 10:21:59;;;;;;;3.63;1.42;;;21.80;81.50;;;;;;5021346;28;20198;-85
2022/07/04 10:24:32;;;;;;;2.28;1.20;;;21.70;81.20;;;;;;5024257;28;20210;-86
2022/07/04 10:27:00;;;;;;;2.28;1.20;;;21.90;82.70;;;;;;5041788;28;20219;-85
2022/07/04 10:29:28;;;;;;;2.53;1.63;;;21.80;79.30;;;;;;5031734;28;20199;-85
2022/07/04 10:31:56;;;;;;;1.73;1.02;;;21.60;80.40;;;;;;5031314;28;20199;-85
2022/07/04 10:34:27;;;;;;;2.45;1.10;;;21.80;81.20;;;;;;5019123;28;20555;-85
2022/07/04 10:36:55;;;;;;;1.63;1.20;;;22.10;79.90;;;;;;5019946;28;20204;-85
2022/07/04 10:39:24;;;;;;;3.10;1.02;;;22.20;78.10;;;;;;5021503;28;20211;-87
2022/07/04 10:41:58;;;;;;;6.38;1.20;;;22.00;76.40;;;;;;5021386;28;20510;-86
2022/07/04 10:44:27;;;;;;;2.08;0.90;;;22.20;75.70;;;;;;5020726;28;20296;-86
2022/07/04 10:46:56;;;;;;;1.75;0.82;;;22.40;76.40;;;;;;5017211;28;20220;-86
2022/07/04 10:53:14;;;;;;;2.05;1.10;;;22.50;73.50;;;;;;5016948;28;20195;-85
2022/07/04 10:55:44;;;;;;;2.35;1.02;;;22.50;72.20;;;;;;5016307;28;20196;-86
2022/07/04 10:58:12;;;;;;;2.30;1.10;;;22.60;70.50;;;;;;5029222;28;20219;-85
2022/07/04 11:01:11;;;;;;;1.73;1.23;;;22.70;70.20;;;;;;5040347;28;21924;-86
2022/07/04 11:03:46;;;;;;;1.38;0.75;;;22.70;70.80;;;;;;5024411;28;20191;-89
2022/07/04 11:06:43;;;;;;;1.83;0.90;;;22.60;70.10;;;;;;5023504;28;20206;-87
2022/07/04 11:09:22;;;;;;;1.83;1.08;;;22.50;69.60;;;;;;5021941;28;20697;-89
2022/07/04 11:12:09;;;;;;;1.30;0.93;;;22.70;67.80;;;;;;5020149;28;20200;-87
2022/07/04 11:14:50;;;;;;;1.85;0.80;;;22.70;67.60;;;;;;5022945;28;20560;-87
2022/07/04 11:17:21;;;;;;;1.67;0.80;;;23.00;68.50;;;;;;5021185;28;20198;-88
2022/07/04 11:19:53;;;;;;;3.83;1.10;;;23.10;68.10;;;;;;5023687;28;20211;-90
2022/07/04 11:22:23;;;;;;;2.42;0.90;;;23.20;68.00;;;;;;5032781;28;20209;-87
2022/07/04 11:24:54;;;;;;;3.70;1.35;;;23.00;67.30;;;;;;5027452;28;20206;-87
2022/07/04 11:27:23;;;;;;;2.30;0.90;;;22.70;67.70;;;;;;5024153;28;20253;-89
2022/07/04 11:29:52;;;;;;;4.55;1.20;;;22.70;68.30;;;;;;5038964;28;20200;-87
2022/07/04 11:32:20;;;;;;;2.08;1.10;;;22.60;69.60;;;;;;5034850;28;20207;-87
2022/07/04 11:34:54;;;;;;;4.03;1.40;;;22.70;67.50;;;;;;5031853;28;20200;-87
2022/07/04 11:37:21;;;;;;;2.03;0.90;;;22.90;68.10;;;;;;5043151;28;20246;-88
2022/07/04 11:39:51;;;;;;;1.40;1.10;;;22.90;67.30;;;;;;5038568;28;20201;-88
2022/07/04 11:45:08;;;;;;;2.33;1.23;;;23.00;68.00;;;;;;5032263;28;20413;-88
2022/07/04 11:47:38;;;;;;;3.38;1.75;;;23.40;68.80;;;;;;5020139;28;20230;-88
2022/07/04 11:50:08;;;;;;;2.15;1.50;;;23.60;66.40;;;;;;5025255;28;20207;-87
2022/07/04 11:52:44;;;;;;;3.15;1.20;;;23.60;63.80;;;;;;5025083;28;20206;-88
2022/07/04 11:55:13;;;;;;;1.60;1.10;;;23.20;61.80;;;;;;5020767;28;20214;-88
2022/07/04 11:57:43;;;;;;;2.80;1.02;;;23.50;61.90;;;;;;5022936;28;20215;-87
2022/07/04 12:00:16;;;;;;;1.98;0.95;;;23.50;59.50;;;;;;5020147;28;20565;-88
2022/07/04 12:02:44;;;;;;;1.33;1.00;;;23.70;58.70;;;;;;5036221;28;20199;-88
2022/07/04 12:05:20;;;;;;;2.85;1.30;;;23.90;59.20;;;;;;5023359;28;20206;-88
2022/07/04 12:07:49;;;;;;;2.50;1.02;;;23.80;59.10;;;;;;5028011;28;20219;-87
2022/07/04 12:10:22;;;;;;;2.35;1.05;;;23.80;58.60;;;;;;5022733;28;20210;-88
2022/07/04 12:12:54;;;;;;;3.20;1.10;;;23.90;59.90;;;;;;5025098;28;20203;-87
2022/07/04 12:15:24;;;;;;;3.08;1.00;;;23.60;60.10;;;;;;5026979;28;20661;-87
2022/07/04 12:17:54;;;;;;;3.03;1.45;;;23.30;61.80;;;;;;5027474;28;20242;-88
2022/07/04 12:20:23;;;;;;;3.13;1.20;;;23.30;63.00;;;;;;5041658;28;20196;-88
2022/07/04 12:22:55;;;;;;;3.00;1.30;;;23.30;62.80;;;;;;5028710;28;20210;-87
2022/07/04 12:41:18;;;;;;;3.30;1.52;;;23.60;62.00;;;;;;5034413;28;20154;-87
2022/07/04 12:43:48;;;;;;;3.75;1.50;;;23.60;61.80;;;;;;5015864;28;20271;-89
2022/07/04 12:46:29;;;;;;;1.80;1.20;;;23.50;62.10;;;;;;5015097;28;20227;-88
2022/07/04 12:48:58;;;;;;;5.10;1.40;;;23.40;62.70;;;;;;5018939;28;20578;-88
2022/07/04 12:51:28;;;;;;;3.15;0.88;;;23.50;62.70;;;;;;5013616;28;20206;-89
2022/07/04 12:53:56;;;;;;;1.58;1.25;;;23.50;61.10;;;;;;5017472;28;20195;-89
2022/07/04 12:56:43;;;;;;;2.17;1.08;;;23.50;60.70;;;;;;5019012;28;20226;-89
2022/07/04 12:59:13;;;;;;;2.53;1.08;;;24.10;60.60;;;;;;5018498;28;20600;-88
2022/07/04 13:01:51;;;;;;;1.27;1.13;;;24.30;59.50;;;;;;5018219;28;20195;-89
2022/07/04 13:05:11;;;;;;;1.50;1.02;;;24.60;60.30;;;;;;5022022;28;20683;-89
2022/07/04 13:07:40;;;;;;;3.53;1.20;;;24.90;59.30;;;;;;5013683;28;20219;-88
2022/07/04 13:10:08;;;;;;;1.48;1.00;;;24.40;57.50;;;;;;5026436;28;20214;-90
2022/07/04 13:12:36;;;;;;;4.03;1.35;;;24.20;57.50;;;;;;5027213;28;20192;-90
2022/07/04 13:15:06;;;;;;;2.40;1.17;;;24.10;57.40;;;;;;5024745;28;20207;-86
2022/07/04 13:17:37;;;;;;;2.72;1.30;;;23.90;57.50;;;;;;5034206;28;20219;-90
2022/07/04 13:20:24;;;;;;;3.22;1.30;;;23.80;58.60;;;;;;5033795;28;20200;-88
2022/07/04 13:22:51;;;;;;;5.15;1.63;;;23.80;59.40;;;;;;5023412;28;20202;-87
2022/07/04 13:25:19;;;;;;;2.30;1.33;;;23.80;59.80;;;;;;5025015;28;20229;-87
2022/07/04 13:27:47;;;;;;;2.92;1.88;;;23.60;59.40;;;;;;5028452;28;20302;-89
2022/07/04 13:30:16;;;;;;;1.42;1.15;;;23.60;60.20;;;;;;5024539;28;20200;-88
2022/07/04 13:32:43;;;;;;;3.80;1.38;;;23.50;59.50;;;;;;5054238;28;20195;-88
2022/07/04 13:35:11;;;;;;;1.77;1.48;;;23.40;58.60;;;;;;5038759;28;20203;-88
2022/07/04 13:37:39;;;;;;;4.38;2.13;;;23.40;58.90;;;;;;5055495;28;20230;-88
2022/07/04 13:40:07;;;;;;;1.73;1.20;;;23.50;59.20;;;;;;5045506;28;20195;-88
2022/07/04 13:45:21;;;;;;;3.58;1.40;;;24.10;58.30;;;;;;5034927;28;20214;-88
2022/07/04 13:47:49;;;;;;;3.10;1.73;;;24.50;57.60;;;;;;5020925;28;20231;-88
2022/07/04 13:50:16;;;;;;;1.90;1.20;;;24.80;57.90;;;;;;5021227;28;20210;-89
2022/07/04 13:52:44;;;;;;;3.92;1.40;;;24.50;57.00;;;;;;5028385;28;20214;-89
2022/07/04 13:55:12;;;;;;;2.38;1.15;;;24.00;57.00;;;;;;5020553;28;20204;-88
2022/07/04 13:57:39;;;;;;;2.55;1.25;;;24.00;56.60;;;;;;5034278;28;20219;-89
2022/07/04 14:00:09;;;;;;;4.72;1.60;;;24.10;56.60;;;;;;5029402;28;20191;-89
2022/07/04 14:02:38;;;;;;;3.33;1.23;;;24.40;55.70;;;;;;5020822;28;20199;-88
2022/07/04 14:05:07;;;;;;;3.08;1.38;;;24.40;56.00;;;;;;5021791;28;20203;-89
2022/07/04 14:07:35;;;;;;;3.70;1.55;;;24.20;56.90;;;;;;5014970;28;20220;-88
2022/07/04 14:10:03;;;;;;;2.25;1.20;;;24.00;56.50;;;;;;5021517;28;20645;-89
2022/07/04 14:12:31;;;;;;;4.60;1.40;;;24.00;56.70;;;;;;5030073;28;20184;-87
2022/07/04 14:14:59;;;;;;;2.42;1.38;;;23.90;57.00;;;;;;5030342;28;20199;-88
2022/07/04 14:17:27;;;;;;;4.60;1.42;;;24.00;57.30;;;;;;5026855;28;20223;-87